Kansas City, Missouri
Traffic Map
Current Weather Conditions
Kansas City, Missouri
Clear
Clear
54°
Feels Like: 54°
Wind Chill: 54° Ceiling: Unl
Heat Index: 54° Visibility: 10mi
Dew Point: 47° Wind: 0mph
Humidity: 77% Direction: ° ()
Pressure: 30.08in Gusts: 0mph
Raw Report DataKMKC 230154Z 00000KT 10SM CLR 12/08 A3008 RMK AO2 SLP184 T01220083
Traffic Incident Summary
Active as of:
Severity:
Category:
InformationThere was an issue retrieving the traffic information for this location. Please try a different location or try again shortly.
Advertisements